createdAt,value
2023-05-05T00:23:12.330Z,7.60
2023-05-05T00:44:07.708Z,7.30
2023-05-05T01:09:10.668Z,7.40
2023-05-05T01:44:53.112Z,8.00
2023-05-05T02:19:52.453Z,7.50
2023-05-05T03:05:25.674Z,7.90
2023-05-05T03:36:33.589Z,8.10
2023-05-05T04:01:49.032Z,8.60
2023-05-05T04:21:47.526Z,9.10
2023-05-05T04:51:51.334Z,10.00
2023-05-05T05:48:14.000Z,11.20
2023-05-05T06:08:09.363Z,12.60
2023-05-05T06:43:54.076Z,14.30
2023-05-05T07:09:27.752Z,15.00
2023-05-05T07:54:22.417Z,15.80
2023-05-05T08:15:22.746Z,15.90
2023-05-05T08:40:39.363Z,16.10
2023-05-05T09:56:42.466Z,16.90
2023-05-05T10:36:39.726Z,16.30
2023-05-05T10:52:24.715Z,16.10
2023-05-05T11:22:16.591Z,17.00
2023-05-05T12:18:09.392Z,16.10
2023-05-05T12:48:36.733Z,16.40
2023-05-05T13:08:46.111Z,16.20
2023-05-05T13:34:42.644Z,16.60
2023-05-05T14:40:36.955Z,16.60
2023-05-05T15:10:52.176Z,16.90
2023-05-05T15:45:50.034Z,15.40
2023-05-05T16:06:45.257Z,14.20
2023-05-05T16:32:08.253Z,13.70
2023-05-05T16:52:14.909Z,13.20
2023-05-05T17:48:02.713Z,12.10
2023-05-05T18:28:43.236Z,11.20
2023-05-05T18:53:23.907Z,10.80
2023-05-05T19:09:18.484Z,10.80
2023-05-05T19:29:08.989Z,10.50
2023-05-05T20:00:02.784Z,10.40
2023-05-05T20:24:43.969Z,10.20
2023-05-05T20:50:29.863Z,9.90
2023-05-05T21:10:25.724Z,9.80
2023-05-05T21:51:26.639Z,9.60
2023-05-05T22:21:17.413Z,9.30
2023-05-05T22:46:38.525Z,9.00
2023-05-05T23:02:21.380Z,8.50
2023-05-05T23:27:36.858Z,8.20
2023-05-05T23:53:07.683Z,7.90
